createdAt,value
2018-09-17T00:01:44.912Z,17.27
2018-09-17T00:04:13.416Z,11.10
2018-09-17T00:06:41.932Z,12.10
2018-09-17T00:09:11.741Z,14.53
2018-09-17T00:11:40.361Z,13.87
2018-09-17T00:14:09.139Z,14.37
2018-09-17T00:16:37.729Z,13.70
2018-09-17T00:19:06.340Z,13.90
2018-09-17T00:21:35.361Z,12.13
2018-09-17T00:24:03.965Z,14.13
2018-09-17T00:26:32.528Z,13.37
2018-09-17T00:29:01.248Z,13.17
2018-09-17T00:31:29.744Z,13.50
2018-09-17T00:33:58.463Z,13.00
2018-09-17T00:36:27.180Z,18.50
2018-09-17T00:38:55.696Z,17.63
2018-09-17T00:41:24.209Z,16.00
2018-09-17T00:43:52.726Z,16.83
2018-09-17T00:46:21.229Z,17.37
2018-09-17T00:48:49.756Z,13.30
2018-09-17T00:51:18.725Z,14.47
2018-09-17T00:53:47.262Z,15.83
2018-09-17T00:56:17.001Z,14.87
2018-09-17T00:58:45.527Z,15.73
2018-09-17T01:01:14.269Z,17.73
2018-09-17T01:03:42.748Z,16.27
2018-09-17T01:06:11.239Z,16.37
2018-09-17T01:08:39.786Z,15.90
2018-09-17T01:11:08.316Z,14.67
2018-09-17T01:13:36.818Z,15.37
2018-09-17T01:16:05.343Z,15.93
2018-09-17T01:18:33.859Z,15.17
2018-09-17T01:21:02.397Z,16.63
2018-09-17T01:23:30.935Z,18.30
2018-09-17T01:25:59.474Z,16.00
2018-09-17T01:28:28.053Z,17.63
2018-09-17T01:30:56.586Z,17.33
2018-09-17T01:33:25.135Z,17.37
2018-09-17T01:35:54.001Z,18.77
2018-09-17T01:38:22.521Z,17.77
2018-09-17T01:40:51.175Z,17.60
2018-09-17T01:43:20.126Z,16.63
2018-09-17T01:45:48.810Z,15.60
2018-09-17T01:48:17.297Z,18.20
2018-09-17T01:50:46.784Z,17.33
2018-09-17T01:53:15.403Z,18.47
2018-09-17T01:55:43.920Z,22.80
2018-09-17T01:58:12.523Z,18.57
2018-09-17T02:00:41.162Z,22.13
2018-09-17T02:03:09.719Z,18.27
2018-09-17T02:05:38.378Z,17.00
2018-09-17T02:08:07.242Z,17.67
2018-09-17T02:10:35.793Z,20.97
2018-09-17T02:13:04.400Z,22.50
2018-09-17T02:15:33.180Z,21.30
2018-09-17T02:18:01.656Z,19.63
2018-09-17T02:20:30.169Z,20.40
2018-09-17T02:22:58.710Z,20.53
2018-09-17T02:25:27.200Z,18.60
2018-09-17T02:27:55.848Z,20.87
2018-09-17T02:30:24.314Z,21.63
2018-09-17T02:32:52.861Z,17.50
2018-09-17T02:35:21.360Z,16.97
2018-09-17T02:37:49.845Z,22.93
2018-09-17T02:40:18.968Z,18.70
2018-09-17T02:42:49.435Z,18.30
2018-09-17T02:45:18.486Z,20.63
2018-09-17T02:47:47.007Z,17.23
2018-09-17T02:50:15.589Z,20.13
2018-09-17T02:52:44.089Z,24.40
2018-09-17T02:55:12.659Z,25.80
2018-09-17T02:57:41.178Z,21.27
2018-09-17T03:00:10.422Z,22.97
2018-09-17T03:02:39.448Z,21.27
2018-09-17T03:05:08.490Z,20.40
2018-09-17T03:07:36.963Z,23.13
2018-09-17T03:10:05.616Z,19.13
2018-09-17T03:12:34.117Z,21.67
2018-09-17T03:15:13.667Z,21.33
2018-09-17T03:17:42.173Z,21.90
2018-09-17T03:20:10.711Z,20.90
2018-09-17T03:22:39.696Z,22.07
2018-09-17T03:25:08.198Z,19.50
2018-09-17T03:27:36.685Z,21.77
2018-09-17T03:30:05.285Z,20.40
2018-09-17T03:32:33.847Z,20.27
2018-09-17T03:35:02.381Z,19.73
2018-09-17T03:37:30.929Z,19.00
2018-09-17T03:40:00.796Z,19.83
2018-09-17T03:42:30.059Z,22.50
2018-09-17T03:44:59.117Z,19.60
2018-09-17T03:47:28.244Z,21.33
2018-09-17T03:49:56.760Z,20.30
2018-09-17T03:52:25.428Z,22.50
2018-09-17T03:54:54.086Z,18.83
2018-09-17T03:57:23.078Z,21.53
2018-09-17T03:59:51.619Z,23.73
2018-09-17T04:02:20.105Z,23.30
2018-09-17T04:04:48.701Z,21.80
2018-09-17T04:07:17.233Z,21.97
2018-09-17T04:09:45.907Z,19.30
2018-09-17T04:12:15.470Z,19.60
2018-09-17T04:14:44.153Z,22.90
2018-09-17T04:17:12.671Z,23.63
2018-09-17T04:19:41.165Z,21.07
2018-09-17T04:22:10.480Z,22.50
2018-09-17T04:24:39.660Z,22.30
2018-09-17T04:27:08.129Z,22.63
2018-09-17T04:29:36.667Z,21.70
2018-09-17T04:32:05.175Z,22.10
2018-09-17T04:34:34.537Z,22.17
2018-09-17T04:37:03.106Z,21.87
2018-09-17T04:39:31.650Z,21.57
2018-09-17T04:42:00.170Z,22.37
2018-09-17T04:44:28.702Z,18.70
2018-09-17T04:46:57.171Z,22.03
2018-09-17T04:49:25.693Z,25.17
2018-09-17T04:51:54.224Z,21.80
2018-09-17T04:54:22.792Z,22.13
2018-09-17T04:56:51.728Z,22.90
2018-09-17T04:59:20.304Z,21.03
2018-09-17T05:01:48.835Z,21.07
2018-09-17T05:04:17.819Z,25.07
2018-09-17T05:06:46.318Z,22.80
2018-09-17T05:09:14.829Z,25.87
2018-09-17T05:11:43.388Z,22.53
2018-09-17T05:14:11.853Z,24.83
2018-09-17T05:16:40.381Z,21.10
2018-09-17T05:19:08.928Z,23.63
2018-09-17T05:21:37.440Z,23.70
2018-09-17T05:24:06.356Z,21.53
2018-09-17T05:26:34.905Z,22.07
2018-09-17T05:29:03.416Z,26.63
2018-09-17T05:31:32.028Z,27.17
2018-09-17T05:34:00.573Z,25.13
2018-09-17T05:36:29.149Z,23.87
2018-09-17T05:38:57.680Z,23.80
2018-09-17T05:41:26.173Z,24.90
2018-09-17T05:43:54.718Z,29.03
2018-09-17T05:46:23.156Z,25.57
2018-09-17T05:48:51.681Z,25.53
2018-09-17T05:51:20.376Z,24.47
2018-09-17T05:53:48.921Z,23.73
2018-09-17T05:56:17.382Z,22.73
2018-09-17T05:58:45.987Z,23.20
2018-09-17T06:01:14.499Z,25.97
2018-09-17T06:03:43.386Z,29.40
2018-09-17T06:06:11.940Z,23.53
2018-09-17T06:08:40.704Z,24.13
2018-09-17T06:11:09.450Z,23.10
2018-09-17T06:13:38.216Z,23.23
2018-09-17T06:16:06.736Z,21.67
2018-09-17T06:18:35.312Z,28.00
2018-09-17T06:21:04.436Z,23.93
2018-09-17T06:23:32.893Z,24.83
2018-09-17T06:26:01.416Z,24.33
2018-09-17T06:28:30.179Z,21.37
2018-09-17T06:30:58.680Z,21.93
2018-09-17T06:33:27.137Z,24.40
2018-09-17T06:35:55.649Z,19.27
2018-09-17T06:38:24.282Z,18.90
2018-09-17T06:40:52.885Z,19.80
2018-09-17T06:43:21.445Z,16.70
2018-09-17T06:45:49.980Z,17.70
2018-09-17T06:48:18.642Z,18.40
2018-09-17T06:50:47.254Z,17.37
2018-09-17T06:53:15.745Z,17.03
2018-09-17T06:55:44.244Z,23.30
2018-09-17T06:58:12.758Z,18.93
2018-09-17T07:00:41.287Z,20.10
2018-09-17T07:03:09.788Z,17.67
2018-09-17T07:05:38.483Z,16.50
2018-09-17T07:08:07.000Z,21.87
2018-09-17T07:10:35.534Z,16.47
2018-09-17T07:13:04.073Z,16.77
2018-09-17T07:15:32.573Z,19.03
2018-09-17T07:18:01.091Z,17.50
2018-09-17T07:20:29.595Z,14.63
2018-09-17T07:22:58.254Z,17.07
2018-09-17T07:25:26.736Z,17.83
2018-09-17T07:27:55.273Z,15.23
2018-09-17T07:30:23.814Z,13.73
2018-09-17T07:32:52.369Z,12.93
2018-09-17T07:35:20.869Z,15.13
2018-09-17T07:37:49.396Z,13.07
2018-09-17T07:40:17.883Z,18.10
2018-09-17T07:42:46.408Z,15.13
2018-09-17T07:45:14.942Z,16.50
2018-09-17T07:47:43.492Z,14.93
2018-09-17T07:50:12.105Z,14.17
2018-09-17T07:52:40.618Z,13.50
2018-09-17T07:55:09.112Z,13.40
2018-09-17T07:57:38.169Z,12.63
2018-09-17T08:00:06.708Z,14.37
2018-09-17T08:02:35.237Z,16.57
2018-09-17T08:05:03.717Z,13.53
2018-09-17T08:07:32.429Z,13.17
2018-09-17T08:10:00.968Z,14.67
2018-09-17T08:12:29.468Z,12.40
2018-09-17T08:14:57.988Z,15.80
2018-09-17T08:17:26.559Z,15.83
2018-09-17T08:19:55.070Z,14.97
2018-09-17T08:22:23.583Z,17.03
2018-09-17T08:24:52.090Z,13.77
2018-09-17T08:27:20.644Z,16.83
2018-09-17T08:29:49.193Z,14.37
2018-09-17T08:32:17.708Z,12.00
2018-09-17T08:34:46.199Z,13.70
2018-09-17T08:37:14.723Z,13.63
2018-09-17T08:39:43.782Z,15.97
2018-09-17T08:42:12.248Z,12.67
2018-09-17T08:44:40.749Z,14.23
2018-09-17T08:47:09.259Z,10.57
2018-09-17T08:49:37.755Z,10.03
2018-09-17T08:52:06.401Z,11.33
2018-09-17T08:54:39.854Z,6.97
2018-09-17T08:57:13.605Z,8.23
2018-09-17T08:59:46.270Z,10.30
2018-09-17T09:02:15.713Z,6.90
2018-09-17T09:04:49.760Z,9.30
2018-09-17T09:07:23.475Z,7.50
2018-09-17T09:09:54.070Z,10.33
2018-09-17T09:12:26.022Z,5.40
2018-09-17T09:15:00.684Z,7.20
2018-09-17T09:17:29.244Z,7.30
2018-09-17T09:19:57.741Z,8.40
2018-09-17T09:22:26.220Z,7.47
2018-09-17T09:24:54.734Z,7.17
2018-09-17T09:27:23.297Z,8.83
2018-09-17T09:29:51.889Z,6.93
2018-09-17T09:32:20.473Z,7.67
2018-09-17T09:34:49.035Z,10.77
2018-09-17T09:37:17.572Z,8.33
2018-09-17T09:39:46.182Z,8.77
2018-09-17T09:42:14.714Z,9.63
2018-09-17T09:44:43.382Z,6.73
2018-09-17T09:47:12.130Z,7.33
2018-09-17T09:49:40.598Z,6.67
2018-09-17T09:52:09.320Z,9.77
2018-09-17T09:54:38.176Z,5.37
2018-09-17T09:57:06.722Z,8.50
2018-09-17T09:59:35.616Z,6.20
2018-09-17T10:02:09.264Z,6.93
2018-09-17T10:04:37.737Z,5.80
2018-09-17T10:07:06.285Z,7.77
2018-09-17T10:09:39.983Z,6.03
2018-09-17T10:12:13.695Z,7.50
2018-09-17T10:14:47.378Z,6.67
2018-09-17T10:18:25.069Z,10.13
2018-09-17T10:20:53.559Z,5.73
2018-09-17T10:23:22.429Z,7.80
2018-09-17T10:25:51.021Z,6.37
2018-09-17T10:28:19.504Z,5.47
2018-09-17T10:30:48.206Z,5.30
2018-09-17T10:33:16.769Z,8.50
2018-09-17T10:35:45.261Z,6.87
2018-09-17T10:38:27.110Z,7.67
2018-09-17T10:40:55.612Z,7.17
2018-09-17T10:43:24.399Z,9.60
2018-09-17T10:45:52.949Z,4.97
2018-09-17T10:48:21.437Z,5.07
2018-09-17T10:50:50.239Z,6.40
2018-09-17T10:53:18.720Z,5.60
2018-09-17T10:55:47.241Z,6.47
2018-09-17T10:58:15.849Z,8.10
2018-09-17T11:00:44.509Z,5.53
2018-09-17T11:03:13.190Z,5.43
2018-09-17T11:05:41.721Z,5.17
2018-09-17T11:08:10.281Z,10.60
2018-09-17T11:10:39.028Z,4.47
2018-09-17T11:13:07.567Z,5.17
2018-09-17T11:15:41.474Z,6.13
2018-09-17T11:18:10.061Z,8.73
2018-09-17T11:20:38.595Z,5.67
2018-09-17T11:23:07.351Z,6.30
2018-09-17T11:25:35.842Z,5.73
2018-09-17T11:28:04.429Z,5.80
2018-09-17T11:30:32.981Z,4.50
2018-09-17T11:33:01.543Z,7.77
2018-09-17T11:35:30.071Z,4.80
2018-09-17T11:37:58.587Z,5.83
2018-09-17T11:40:27.134Z,5.53
2018-09-17T11:42:55.609Z,7.83
2018-09-17T11:45:24.136Z,5.20
2018-09-17T11:47:52.649Z,4.40
2018-09-17T11:50:21.163Z,6.30
2018-09-17T11:52:49.985Z,6.57
2018-09-17T11:55:18.520Z,7.00
2018-09-17T11:57:47.027Z,6.63
2018-09-17T12:00:20.620Z,8.03
2018-09-17T12:02:54.852Z,8.47
2018-09-17T12:05:28.729Z,8.90
2018-09-17T12:07:57.304Z,4.17
2018-09-17T12:10:25.808Z,4.97
2018-09-17T12:12:54.371Z,4.83
2018-09-17T12:15:23.096Z,4.43
2018-09-17T12:17:51.753Z,5.20
2018-09-17T12:20:21.538Z,5.00
2018-09-17T12:22:50.061Z,4.87
2018-09-17T12:25:18.699Z,6.03
2018-09-17T12:27:47.298Z,5.07
2018-09-17T12:30:15.827Z,4.77
2018-09-17T12:32:44.564Z,5.90
2018-09-17T12:35:13.072Z,4.30
2018-09-17T12:37:41.757Z,3.20
2018-09-17T12:40:10.321Z,5.93
2018-09-17T12:42:38.832Z,5.00
2018-09-17T12:45:07.461Z,7.47
2018-09-17T12:47:35.992Z,4.07
2018-09-17T12:50:04.571Z,4.17
2018-09-17T12:52:33.078Z,6.70
2018-09-17T12:55:01.612Z,3.83
2018-09-17T12:57:30.195Z,3.37
2018-09-17T12:59:58.808Z,3.83
2018-09-17T13:02:27.290Z,7.03
2018-09-17T13:04:55.963Z,4.60
2018-09-17T13:07:24.471Z,6.30
2018-09-17T13:09:52.975Z,3.70
2018-09-17T13:12:21.530Z,4.00
2018-09-17T13:14:50.088Z,7.47
2018-09-17T13:17:18.598Z,4.57
2018-09-17T13:19:47.164Z,5.63
2018-09-17T13:22:15.761Z,4.17
2018-09-17T13:24:44.429Z,4.23
2018-09-17T13:27:12.912Z,3.77
2018-09-17T13:29:41.408Z,3.40
2018-09-17T13:32:09.946Z,4.13
2018-09-17T13:34:38.713Z,5.53
2018-09-17T13:37:07.374Z,3.93
2018-09-17T13:39:35.901Z,4.50
2018-09-17T13:42:04.468Z,4.80
2018-09-17T13:44:33.164Z,4.43
2018-09-17T13:47:01.960Z,6.77
2018-09-17T13:49:30.536Z,5.90
2018-09-17T13:51:59.190Z,4.30
2018-09-17T13:54:28.006Z,3.77
2018-09-17T13:56:56.640Z,4.80
2018-09-17T13:59:25.297Z,4.70
2018-09-17T14:01:53.808Z,3.90
2018-09-17T14:04:22.335Z,3.97
2018-09-17T14:06:50.927Z,4.57
2018-09-17T14:09:19.513Z,3.87
2018-09-17T14:11:48.062Z,5.00
2018-09-17T14:14:16.585Z,8.33
2018-09-17T14:16:45.230Z,4.07
2018-09-17T14:19:13.810Z,5.87
2018-09-17T14:21:42.365Z,5.10
2018-09-17T14:24:10.903Z,4.97
2018-09-17T14:26:39.600Z,4.93
2018-09-17T14:29:08.251Z,5.60
2018-09-17T14:31:42.189Z,4.00
2018-09-17T14:34:10.745Z,6.67
2018-09-17T14:36:39.318Z,3.00
2018-09-17T14:39:09.061Z,2.97
2018-09-17T14:41:37.765Z,6.30
2018-09-17T14:44:06.420Z,4.73
2018-09-17T14:46:34.990Z,3.63
2018-09-17T14:49:03.633Z,3.40
2018-09-17T14:51:32.188Z,5.30
2018-09-17T14:54:00.987Z,4.23
2018-09-17T14:56:29.471Z,5.00
2018-09-17T14:58:58.225Z,3.90
2018-09-17T15:01:27.902Z,3.63
2018-09-17T15:03:56.449Z,5.40
2018-09-17T15:06:25.005Z,3.37
2018-09-17T15:08:53.574Z,4.97
2018-09-17T15:11:22.102Z,3.87
2018-09-17T15:13:50.727Z,6.13
2018-09-17T15:16:20.736Z,4.30
2018-09-17T15:18:49.427Z,3.93
2018-09-17T15:21:17.984Z,3.60
2018-09-17T15:23:46.586Z,4.07
2018-09-17T15:26:15.161Z,3.13
2018-09-17T15:28:43.650Z,4.80
2018-09-17T15:31:12.204Z,7.10
2018-09-17T15:33:40.700Z,3.33
2018-09-17T15:36:09.244Z,7.80
2018-09-17T15:38:37.871Z,5.17
2018-09-17T15:41:06.445Z,5.80
2018-09-17T15:43:34.898Z,4.63
2018-09-17T15:46:03.741Z,3.80
2018-09-17T15:48:32.258Z,4.67
2018-09-17T15:51:00.740Z,7.17
2018-09-17T15:53:29.256Z,4.17
2018-09-17T15:55:57.847Z,3.83
2018-09-17T15:58:26.373Z,3.73
2018-09-17T16:00:54.873Z,5.20
2018-09-17T16:03:23.403Z,4.80
2018-09-17T16:05:51.993Z,4.47
2018-09-17T16:08:20.489Z,4.27
2018-09-17T16:10:49.038Z,8.70
2018-09-17T16:13:17.601Z,3.17
2018-09-17T16:15:47.472Z,4.07
2018-09-17T16:18:16.928Z,5.53
2018-09-17T16:20:45.437Z,3.67
2018-09-17T16:23:13.969Z,3.63
2018-09-17T16:25:42.665Z,5.23
2018-09-17T16:28:11.174Z,9.50
2018-09-17T16:30:39.716Z,6.60
2018-09-17T16:33:08.284Z,5.10
2018-09-17T16:35:36.862Z,4.83
2018-09-17T16:38:05.435Z,5.63
2018-09-17T16:40:33.991Z,3.77
2018-09-17T16:43:02.512Z,5.00
2018-09-17T16:45:31.049Z,5.53
2018-09-17T16:47:59.624Z,4.93
2018-09-17T16:50:28.457Z,5.20
2018-09-17T16:52:57.015Z,8.80
2018-09-17T16:55:25.538Z,6.37
2018-09-17T16:57:54.292Z,6.53
2018-09-17T17:00:22.993Z,5.57
2018-09-17T17:02:51.504Z,9.97
2018-09-17T17:05:20.050Z,7.77
2018-09-17T17:07:48.592Z,6.83
2018-09-17T17:10:17.195Z,4.67
2018-09-17T17:12:45.710Z,8.33
2018-09-17T17:15:14.208Z,10.10
2018-09-17T17:17:42.757Z,8.17
2018-09-17T17:20:11.293Z,6.97
2018-09-17T17:22:39.822Z,6.43
2018-09-17T17:25:08.382Z,5.27
2018-09-17T17:27:39.849Z,6.50
2018-09-17T17:30:08.832Z,10.27
2018-09-17T17:32:37.370Z,11.53
2018-09-17T17:35:06.075Z,5.23
2018-09-17T17:37:34.635Z,5.80
2018-09-17T17:40:03.249Z,6.27
2018-09-17T17:42:31.719Z,6.43
2018-09-17T17:45:00.258Z,7.07
2018-09-17T17:47:28.847Z,9.40
2018-09-17T17:49:57.445Z,6.13
2018-09-17T17:52:25.990Z,7.50
2018-09-17T17:54:54.542Z,6.30
2018-09-17T17:57:23.084Z,4.97
2018-09-17T17:59:51.737Z,6.63
2018-09-17T18:02:20.274Z,7.23
2018-09-17T18:04:48.888Z,5.47
2018-09-17T18:07:17.507Z,6.87
2018-09-17T18:09:46.045Z,6.73
2018-09-17T18:12:14.694Z,6.53
2018-09-17T18:14:43.302Z,4.33
2018-09-17T18:17:11.869Z,4.37
2018-09-17T18:19:40.531Z,3.60
2018-09-17T18:22:09.057Z,5.83
2018-09-17T18:24:37.582Z,5.13
2018-09-17T18:27:06.097Z,6.20
2018-09-17T18:29:34.624Z,5.97
2018-09-17T18:32:03.161Z,5.67
2018-09-17T18:34:31.695Z,7.33
2018-09-17T18:37:00.504Z,5.73
2018-09-17T18:39:29.237Z,7.97
2018-09-17T18:41:57.741Z,8.50
2018-09-17T18:44:26.313Z,7.67
2018-09-17T18:46:54.876Z,8.70
2018-09-17T18:49:23.448Z,4.80
2018-09-17T18:51:52.022Z,8.10
2018-09-17T18:54:20.665Z,8.63
2018-09-17T18:56:49.338Z,8.80
2018-09-17T18:59:17.840Z,6.37
2018-09-17T19:01:46.405Z,4.10
2018-09-17T19:04:14.976Z,7.07
2018-09-17T19:06:43.541Z,6.53
2018-09-17T19:09:12.301Z,4.93
2018-09-17T19:11:41.033Z,8.43
2018-09-17T19:14:15.036Z,9.10
2018-09-17T19:16:49.734Z,6.20
2018-09-17T19:19:18.492Z,8.67
2018-09-17T19:21:52.724Z,5.50
2018-09-17T19:24:21.249Z,7.43
2018-09-17T19:26:49.872Z,6.60
2018-09-17T19:29:20.350Z,6.93
2018-09-17T19:31:49.609Z,8.30
2018-09-17T19:34:18.265Z,7.10
2018-09-17T19:36:47.249Z,11.07
2018-09-17T19:39:21.088Z,10.70
2018-09-17T19:41:49.998Z,8.67
2018-09-17T19:44:18.769Z,9.23
2018-09-17T19:46:47.219Z,5.33
2018-09-17T19:49:15.829Z,10.03
2018-09-17T19:51:49.625Z,10.27
2018-09-17T19:54:18.257Z,9.37
2018-09-17T19:56:47.076Z,10.33
2018-09-17T19:59:20.874Z,5.57
2018-09-17T20:01:49.463Z,5.90
2018-09-17T20:04:23.805Z,9.30
2018-09-17T20:06:52.458Z,10.33
2018-09-17T20:09:21.074Z,9.10
2018-09-17T20:11:49.593Z,10.90
2018-09-17T20:14:18.200Z,8.20
2018-09-17T20:16:46.852Z,9.30
2018-09-17T20:19:15.393Z,8.90
2018-09-17T20:21:44.554Z,6.37
2018-09-17T20:24:13.241Z,6.60
2018-09-17T20:26:41.777Z,9.50
2018-09-17T20:29:10.290Z,12.20
2018-09-17T20:31:38.846Z,6.57
2018-09-17T20:34:07.369Z,7.67
2018-09-17T20:36:35.856Z,5.60
2018-09-17T20:39:05.857Z,10.87
2018-09-17T20:41:34.381Z,7.63
2018-09-17T20:44:03.310Z,8.33
2018-09-17T20:46:31.822Z,11.13
2018-09-17T20:49:00.487Z,7.30
2018-09-17T20:51:29.165Z,5.47
2018-09-17T20:53:57.691Z,7.13
2018-09-17T20:56:26.241Z,5.93
2018-09-17T20:58:54.743Z,7.27
2018-09-17T21:01:23.577Z,10.50
2018-09-17T21:03:52.062Z,4.97
2018-09-17T21:06:20.773Z,6.70
2018-09-17T21:08:49.596Z,7.73
2018-09-17T21:11:18.096Z,8.60
2018-09-17T21:13:46.608Z,6.00
2018-09-17T21:16:15.343Z,7.80
2018-09-17T21:18:44.178Z,6.30
2018-09-17T21:21:12.929Z,10.07
2018-09-17T21:23:41.638Z,7.03
2018-09-17T21:26:10.429Z,9.13
2018-09-17T21:28:39.014Z,7.43
2018-09-17T21:31:07.568Z,7.00
2018-09-17T21:33:36.336Z,8.73
2018-09-17T21:36:04.886Z,7.73
2018-09-17T21:38:33.448Z,6.90
2018-09-17T21:41:02.037Z,7.17
2018-09-17T21:43:30.591Z,6.80
2018-09-17T21:45:59.137Z,7.00
2018-09-17T21:48:27.648Z,7.90
2018-09-17T21:50:56.164Z,8.67
2018-09-17T21:53:24.621Z,10.80
2018-09-17T21:55:53.511Z,8.57
2018-09-17T21:58:22.007Z,7.80
2018-09-17T22:00:55.949Z,8.20
2018-09-17T22:03:24.518Z,7.20
2018-09-17T22:05:53.072Z,9.50
2018-09-17T22:08:22.180Z,7.47
2018-09-17T22:10:50.734Z,9.47
2018-09-17T22:13:19.362Z,9.23
2018-09-17T22:15:47.906Z,9.37
2018-09-17T22:18:16.475Z,9.33
2018-09-17T22:20:44.975Z,7.67
2018-09-17T22:23:13.468Z,10.47
2018-09-17T22:25:42.135Z,8.77
2018-09-17T22:28:10.700Z,8.33
2018-09-17T22:30:39.203Z,12.27
2018-09-17T22:33:07.719Z,9.60
2018-09-17T22:35:36.270Z,8.17
2018-09-17T22:38:04.863Z,8.03
2018-09-17T22:40:33.766Z,11.17
2018-09-17T22:43:02.329Z,9.13
2018-09-17T22:45:30.826Z,8.70
2018-09-17T22:47:59.336Z,11.43
2018-09-17T22:50:27.893Z,7.20
2018-09-17T22:52:56.448Z,11.07
2018-09-17T22:55:25.219Z,9.47
2018-09-17T22:57:53.729Z,10.33
2018-09-17T23:00:22.338Z,10.53
2018-09-17T23:02:50.863Z,10.80
2018-09-17T23:05:19.644Z,12.23
2018-09-17T23:07:49.035Z,11.40
2018-09-17T23:10:17.648Z,11.43
2018-09-17T23:12:46.194Z,10.27
2018-09-17T23:15:14.745Z,12.87
2018-09-17T23:17:43.205Z,11.30
2018-09-17T23:20:11.893Z,11.70
2018-09-17T23:22:40.407Z,12.77
2018-09-17T23:25:08.931Z,15.93
2018-09-17T23:27:37.633Z,14.57
2018-09-17T23:30:06.498Z,13.37
2018-09-17T23:32:35.727Z,12.93
2018-09-17T23:35:04.375Z,13.27
2018-09-17T23:37:32.867Z,15.03
2018-09-17T23:40:01.775Z,17.00
2018-09-17T23:42:30.388Z,20.40
2018-09-17T23:44:59.275Z,16.83
2018-09-17T23:47:27.784Z,22.17
2018-09-17T23:49:56.588Z,17.83
2018-09-17T23:52:25.237Z,23.10
2018-09-17T23:54:53.816Z,23.03
2018-09-17T23:57:22.373Z,21.17
2018-09-17T23:59:50.905Z,19.63
